createdAt,value
2022-10-01T00:01:20.219Z,100512.28
2022-10-01T00:03:50.496Z,100512.84
2022-10-01T00:06:22.305Z,100512.31
2022-10-01T00:08:51.365Z,100507.69
2022-10-01T00:11:25.489Z,100503.91
2022-10-01T00:13:54.411Z,100507.25
2022-10-01T00:16:29.388Z,100504.50
2022-10-01T00:18:58.156Z,100494.84
2022-10-01T00:21:31.833Z,100490.97
2022-10-01T00:24:05.493Z,100497.06
2022-10-01T00:26:37.205Z,100498.47
2022-10-01T00:29:12.641Z,100493.78
2022-10-01T00:31:40.092Z,100489.09
2022-10-01T00:34:07.437Z,100497.34
2022-10-01T00:36:34.934Z,100490.47
2022-10-01T00:39:02.437Z,100487.09
2022-10-01T00:41:34.526Z,100490.09
2022-10-01T00:44:32.218Z,100484.28
2022-10-01T00:47:32.540Z,100482.88
2022-10-01T00:50:16.484Z,100483.97
2022-10-01T00:52:57.261Z,100480.41
2022-10-01T00:55:53.336Z,100475.19
2022-10-01T00:58:23.661Z,100472.97
2022-10-01T01:00:57.221Z,100469.50
2022-10-01T01:03:26.407Z,100479.97
2022-10-01T01:05:53.384Z,100471.19
2022-10-01T01:08:20.882Z,100473.72
2022-10-01T01:11:28.467Z,100467.44
2022-10-01T01:14:15.040Z,100467.44
2022-10-01T01:17:01.466Z,100475.84
2022-10-01T01:20:24.209Z,100472.56
2022-10-01T01:23:27.238Z,100467.25
2022-10-01T01:26:29.485Z,100469.75
2022-10-01T01:29:37.045Z,100465.09
2022-10-01T01:32:19.433Z,100457.94
2022-10-01T01:34:57.796Z,100458.25
2022-10-01T01:37:35.243Z,100444.44
2022-10-01T01:40:11.445Z,100450.47
2022-10-01T01:42:46.314Z,100448.69
2022-10-01T01:45:28.766Z,100445.03
2022-10-01T01:48:02.248Z,100434.81
2022-10-01T01:50:44.564Z,100440.03
2022-10-01T01:53:11.511Z,100434.50
2022-10-01T01:55:40.096Z,100434.22
2022-10-01T01:58:08.211Z,100439.13
2022-10-01T02:00:35.047Z,100438.47
2022-10-01T02:03:02.897Z,100432.97
2022-10-01T02:05:59.491Z,100441.22
2022-10-01T02:09:09.707Z,100431.63
2022-10-01T02:12:08.747Z,100433.09
2022-10-01T02:15:21.394Z,100433.38
2022-10-01T02:18:30.410Z,100422.09
2022-10-01T02:21:28.177Z,100426.25
2022-10-01T02:24:33.603Z,100436.75
2022-10-01T02:27:15.522Z,100430.72
2022-10-01T02:29:46.397Z,100434.28
2022-10-01T02:32:19.453Z,100433.75
2022-10-01T02:34:52.680Z,100428.25
2022-10-01T02:37:27.645Z,100425.50
2022-10-01T02:40:00.517Z,100424.97
2022-10-01T02:42:32.417Z,100425.25
2022-10-01T02:45:05.442Z,100422.03
2022-10-01T02:47:50.952Z,100429.81
2022-10-01T02:50:17.999Z,100424.25
2022-10-01T02:53:08.995Z,100424.47
2022-10-01T02:55:45.004Z,100422.78
2022-10-01T02:58:12.658Z,100426.47
2022-10-01T03:00:39.630Z,100412.94
2022-10-01T03:03:06.591Z,100411.63
2022-10-01T03:05:33.518Z,100412.03
2022-10-01T03:08:00.797Z,100404.25
2022-10-01T03:10:27.764Z,100398.88
2022-10-01T03:12:54.754Z,100400.44
2022-10-01T03:15:22.020Z,100390.53
2022-10-01T03:17:55.859Z,100393.59
2022-10-01T03:20:23.860Z,100388.09
2022-10-01T03:22:50.852Z,100385.41
2022-10-01T03:25:17.921Z,100383.25
2022-10-01T03:27:46.585Z,100388.78
2022-10-01T03:30:13.942Z,100377.75
2022-10-01T03:32:40.943Z,100378.06
2022-10-01T03:35:08.586Z,100380.41
2022-10-01T03:37:35.524Z,100365.84
2022-10-01T03:40:03.167Z,100357.81
2022-10-01T03:42:30.060Z,100362.59
2022-10-01T03:44:56.989Z,100366.38
2022-10-01T03:47:24.441Z,100356.56
2022-10-01T03:49:51.399Z,100363.84
2022-10-01T03:52:19.156Z,100360.84
2022-10-01T03:54:46.054Z,100358.38
2022-10-01T03:57:12.989Z,100349.31
2022-10-01T03:59:39.933Z,100359.19
2022-10-01T04:02:07.683Z,100351.91
2022-10-01T04:04:34.888Z,100352.44
2022-10-01T04:07:01.858Z,100349.34
2022-10-01T04:09:28.810Z,100341.31
2022-10-01T04:11:56.165Z,100341.53
2022-10-01T04:14:23.124Z,100335.22
2022-10-01T04:16:52.440Z,100338.78
2022-10-01T04:19:20.454Z,100339.06
2022-10-01T04:21:48.042Z,100333.84
2022-10-01T04:24:14.968Z,100330.91
2022-10-01T04:26:41.932Z,100331.72
2022-10-01T04:29:09.076Z,100335.72
2022-10-01T04:31:36.438Z,100327.94
2022-10-01T04:34:04.188Z,100329.09
2022-10-01T04:36:31.258Z,100329.59
2022-10-01T04:39:02.178Z,100333.38
2022-10-01T04:41:31.637Z,100330.63
2022-10-01T04:44:00.101Z,100331.44
2022-10-01T04:46:30.429Z,100331.94
2022-10-01T04:48:57.828Z,100327.78
2022-10-01T04:51:25.039Z,100329.31
2022-10-01T04:53:52.071Z,100317.06
2022-10-01T04:56:18.988Z,100322.06
2022-10-01T04:58:46.003Z,100318.41
2022-10-01T05:01:13.007Z,100314.75
2022-10-01T05:03:39.978Z,100311.16
2022-10-01T05:06:06.955Z,100310.56
2022-10-01T05:08:33.860Z,100314.63
2022-10-01T05:11:00.782Z,100306.59
2022-10-01T05:13:30.195Z,100313.13
2022-10-01T05:15:59.330Z,100314.66
2022-10-01T05:18:26.333Z,100304.09
2022-10-01T05:20:53.318Z,100307.81
2022-10-01T05:23:20.296Z,100318.22
2022-10-01T05:25:47.327Z,100310.38
2022-10-01T05:28:18.398Z,100308.13
2022-10-01T05:30:49.061Z,100310.56
2022-10-01T05:33:16.138Z,100308.31
2022-10-01T05:35:43.092Z,100303.50
2022-10-01T05:38:10.544Z,100296.53
2022-10-01T05:40:37.510Z,100302.56
2022-10-01T05:43:04.527Z,100295.81
2022-10-01T05:45:32.738Z,100284.69
2022-10-01T05:48:07.201Z,100286.81
2022-10-01T05:50:40.525Z,100277.28
2022-10-01T05:53:12.049Z,100277.88
2022-10-01T05:55:39.061Z,100271.59
2022-10-01T05:58:11.199Z,100269.22
2022-10-01T06:00:41.899Z,100265.19
2022-10-01T06:03:15.348Z,100256.47
2022-10-01T06:05:45.166Z,100255.09
2022-10-01T06:08:13.262Z,100255.16
2022-10-01T06:10:40.844Z,100253.91
2022-10-01T06:13:08.288Z,100246.97
2022-10-01T06:15:39.284Z,100240.34
2022-10-01T06:18:10.601Z,100232.88
2022-10-01T06:20:40.986Z,100230.63
2022-10-01T06:23:12.661Z,100234.75
2022-10-01T06:25:43.523Z,100229.56
2022-10-01T06:28:14.912Z,100224.53
2022-10-01T06:30:42.584Z,100220.31
2022-10-01T06:33:15.468Z,100216.75
2022-10-01T06:35:49.362Z,100216.59
2022-10-01T06:38:20.720Z,100225.56
2022-10-01T06:41:02.059Z,100216.47
2022-10-01T06:43:31.866Z,100220.84
2022-10-01T06:46:04.758Z,100216.97
2022-10-01T06:48:35.525Z,100218.91
2022-10-01T06:51:04.165Z,100209.00
2022-10-01T06:53:32.254Z,100207.03
2022-10-01T06:56:07.998Z,100210.16
2022-10-01T06:58:35.098Z,100207.03
2022-10-01T07:01:04.049Z,100191.44
2022-10-01T07:03:31.797Z,100183.63
2022-10-01T07:06:05.507Z,100189.16
2022-10-01T07:08:33.409Z,100187.84
2022-10-01T07:11:02.736Z,100187.53
2022-10-01T07:13:31.239Z,100188.50
2022-10-01T07:15:58.224Z,100175.00
2022-10-01T07:18:25.378Z,100183.97
2022-10-01T07:20:52.341Z,100175.00
2022-10-01T07:23:19.296Z,100177.47
2022-10-01T07:25:46.419Z,100159.88
2022-10-01T07:28:20.690Z,100160.38
2022-10-01T07:31:03.179Z,100162.50
2022-10-01T07:33:30.244Z,100152.38
2022-10-01T07:36:02.374Z,100150.91
2022-10-01T07:38:30.230Z,100143.22
2022-10-01T07:40:58.960Z,100143.38
2022-10-01T07:43:26.326Z,100144.19
2022-10-01T07:45:55.205Z,100139.25
2022-10-01T07:48:22.288Z,100137.28
2022-10-01T07:50:49.661Z,100133.16
2022-10-01T07:53:18.490Z,100130.88
2022-10-01T07:55:46.040Z,100128.03
2022-10-01T07:58:13.425Z,100115.63
2022-10-01T08:00:40.629Z,100118.41
2022-10-01T08:03:07.610Z,100119.97
2022-10-01T08:05:36.279Z,100113.34
2022-10-01T08:08:09.290Z,100112.69
2022-10-01T08:10:39.370Z,100102.41
2022-10-01T08:13:16.546Z,100094.72
2022-10-01T08:15:50.671Z,100095.31
2022-10-01T08:18:17.704Z,100095.13
2022-10-01T08:20:44.740Z,100092.75
2022-10-01T08:23:16.957Z,100090.13
2022-10-01T08:25:45.147Z,100084.84
2022-10-01T08:28:13.133Z,100083.81
2022-10-01T08:30:42.570Z,100081.97
2022-10-01T08:33:13.571Z,100075.53
2022-10-01T08:35:43.722Z,100085.50
2022-10-01T08:38:13.293Z,100089.47
2022-10-01T08:40:51.343Z,100090.75
2022-10-01T08:43:40.285Z,100086.69
2022-10-01T08:46:20.983Z,100072.75
2022-10-01T08:49:43.965Z,100077.53
2022-10-01T08:52:37.449Z,100059.66
2022-10-01T08:55:26.242Z,100070.78
2022-10-01T08:58:05.486Z,100059.69
2022-10-01T09:00:41.918Z,100061.31
2022-10-01T09:03:15.577Z,100053.31
2022-10-01T09:06:06.777Z,100050.28
2022-10-01T09:09:13.683Z,100047.16
2022-10-01T09:12:00.339Z,100043.13
2022-10-01T09:15:16.501Z,100037.75
2022-10-01T09:18:12.518Z,100023.78
2022-10-01T09:20:57.358Z,100031.50
2022-10-01T09:23:36.702Z,100015.47
2022-10-01T09:26:11.825Z,100013.78
2022-10-01T09:28:41.697Z,100007.38
2022-10-01T09:31:43.024Z,100004.75
2022-10-01T09:34:24.846Z,99997.72
2022-10-01T09:37:22.356Z,100000.88
2022-10-01T09:40:16.581Z,99997.09
2022-10-01T09:42:44.221Z,100000.69
2022-10-01T09:45:15.699Z,99985.72
2022-10-01T09:47:51.779Z,99983.53
2022-10-01T09:50:38.602Z,99980.09
2022-10-01T09:53:20.103Z,99978.72
2022-10-01T09:56:00.010Z,99970.53
2022-10-01T09:58:30.946Z,99970.22
2022-10-01T10:00:58.191Z,99962.00
2022-10-01T10:03:32.060Z,99957.13
2022-10-01T10:06:01.290Z,99961.78
2022-10-01T10:08:40.216Z,99952.78
2022-10-01T10:11:22.730Z,99949.75
2022-10-01T10:14:04.500Z,99961.13
2022-10-01T10:16:42.208Z,99955.50
2022-10-01T10:19:31.059Z,99952.75
2022-10-01T10:22:23.410Z,99952.50
2022-10-01T10:24:53.452Z,99955.03
2022-10-01T10:27:30.691Z,99947.63
2022-10-01T10:30:16.246Z,99942.31
2022-10-01T10:32:47.230Z,99949.72
2022-10-01T10:35:26.219Z,99945.16
2022-10-01T10:37:57.749Z,99943.88
2022-10-01T10:40:39.856Z,99946.78
2022-10-01T10:43:22.835Z,99937.75
2022-10-01T10:45:57.123Z,99940.16
2022-10-01T10:48:44.056Z,99931.59
2022-10-01T10:51:10.982Z,99930.44
2022-10-01T10:53:46.028Z,99936.19
2022-10-01T10:56:25.454Z,99919.22
2022-10-01T10:58:53.918Z,99921.19
2022-10-01T11:01:43.489Z,99890.56
2022-10-01T11:04:34.624Z,99922.56
2022-10-01T11:07:01.753Z,99930.19
2022-10-01T11:10:27.135Z,99931.38
2022-10-01T11:13:38.116Z,99927.81
2022-10-01T11:17:01.763Z,99908.72
2022-10-01T11:20:35.633Z,99901.78
2022-10-01T11:23:39.974Z,99904.44
2022-10-01T11:26:30.926Z,99898.22
2022-10-01T11:29:00.520Z,99908.13
2022-10-01T11:31:47.187Z,99903.53
2022-10-01T11:34:50.352Z,99893.81
2022-10-01T11:37:48.485Z,99898.44
2022-10-01T11:40:27.106Z,99889.97
2022-10-01T11:43:05.484Z,99885.13
2022-10-01T11:45:45.870Z,99892.66
2022-10-01T11:48:57.351Z,99893.47
2022-10-01T11:51:42.073Z,99892.06
2022-10-01T11:54:24.333Z,99884.88
2022-10-01T11:57:17.151Z,99885.25
2022-10-01T11:59:59.074Z,99891.81
2022-10-01T12:02:40.269Z,99884.53
2022-10-01T12:05:10.168Z,99890.91
2022-10-01T12:08:15.234Z,99888.69
2022-10-01T12:11:00.099Z,99889.50
2022-10-01T12:13:53.196Z,99881.22
2022-10-01T12:16:40.491Z,99877.28
2022-10-01T12:19:26.712Z,99887.34
2022-10-01T12:22:25.855Z,99870.81
2022-10-01T12:24:54.345Z,99878.66
2022-10-01T12:27:54.873Z,99887.75
2022-10-01T12:30:32.433Z,99877.50
2022-10-01T12:33:54.184Z,99888.75
2022-10-01T12:37:04.619Z,99879.53
2022-10-01T12:40:34.688Z,99881.66
2022-10-01T12:44:02.841Z,99888.31
2022-10-01T12:47:17.941Z,99872.03
2022-10-01T12:50:11.560Z,99866.03
2022-10-01T12:52:54.556Z,99870.53
2022-10-01T12:56:02.349Z,99857.59
2022-10-01T12:59:12.787Z,99860.94
2022-10-01T13:02:16.518Z,99872.50
2022-10-01T13:05:27.829Z,99868.66
2022-10-01T13:08:22.544Z,99865.09
2022-10-01T13:11:44.527Z,99861.75
2022-10-01T13:14:19.284Z,99872.97
2022-10-01T13:17:26.339Z,99879.34
2022-10-01T13:20:35.578Z,99874.13
2022-10-01T13:23:23.617Z,99866.97
2022-10-01T13:26:29.253Z,99867.44
2022-10-01T13:30:00.076Z,99865.91
2022-10-01T13:32:33.275Z,99866.63
2022-10-01T13:35:30.407Z,99865.38
2022-10-01T13:38:00.008Z,99868.59
2022-10-01T13:40:35.419Z,99858.00
2022-10-01T13:43:23.819Z,99863.78
2022-10-01T13:45:55.478Z,99868.31
2022-10-01T13:48:34.804Z,99870.81
2022-10-01T13:51:15.279Z,99867.91
2022-10-01T13:53:42.113Z,99865.38
2022-10-01T13:56:26.628Z,99876.38
2022-10-01T13:58:53.692Z,99870.69
2022-10-01T14:01:24.024Z,99872.31
2022-10-01T14:04:23.595Z,99864.38
2022-10-01T14:07:19.527Z,99866.44
2022-10-01T14:09:57.917Z,99869.84
2022-10-01T14:12:55.884Z,99863.16
2022-10-01T14:15:55.400Z,99870.16
2022-10-01T14:18:33.736Z,99868.97
2022-10-01T14:21:48.490Z,99865.88
2022-10-01T14:25:15.440Z,99859.66
2022-10-01T14:28:22.562Z,99858.00
2022-10-01T14:31:20.513Z,99854.72
2022-10-01T14:34:38.506Z,99855.53
2022-10-01T14:37:17.552Z,99856.59
2022-10-01T14:39:44.968Z,99861.09
2022-10-01T14:42:19.202Z,99858.03
2022-10-01T14:44:47.904Z,99858.03
2022-10-01T14:47:25.587Z,99854.00
2022-10-01T14:49:55.408Z,99854.97
2022-10-01T14:52:31.655Z,99851.28
2022-10-01T14:55:13.003Z,99860.91
2022-10-01T14:57:53.688Z,99853.34
2022-10-01T15:00:30.513Z,99855.19
2022-10-01T15:03:17.701Z,99856.56
2022-10-01T15:05:51.763Z,99854.13
2022-10-01T15:08:38.095Z,99852.03
2022-10-01T15:11:16.292Z,99857.69
2022-10-01T15:13:49.389Z,99851.00
2022-10-01T15:16:25.910Z,99857.09
2022-10-01T15:19:01.588Z,99855.22
2022-10-01T15:21:47.124Z,99860.09
2022-10-01T15:24:46.492Z,99854.25
2022-10-01T15:27:20.720Z,99863.88
2022-10-01T15:29:56.888Z,99866.63
2022-10-01T15:32:28.184Z,99867.94
2022-10-01T15:35:01.844Z,99880.66
2022-10-01T15:37:35.917Z,99875.28
2022-10-01T15:40:22.030Z,99877.88
2022-10-01T15:43:25.266Z,99876.28
2022-10-01T15:46:25.294Z,99881.97
2022-10-01T15:49:18.294Z,99880.84
2022-10-01T15:52:22.778Z,99881.16
2022-10-01T15:55:00.553Z,99876.63
2022-10-01T15:57:33.572Z,99875.34
2022-10-01T16:00:01.135Z,99876.41
2022-10-01T16:02:33.018Z,99887.06
2022-10-01T16:05:07.438Z,99884.81
2022-10-01T16:07:35.463Z,99880.81
2022-10-01T16:10:31.370Z,99873.63
2022-10-01T16:12:59.088Z,99884.06
2022-10-01T16:15:31.142Z,99880.25
2022-10-01T16:18:05.051Z,99880.59
2022-10-01T16:20:34.718Z,99890.31
2022-10-01T16:23:48.118Z,99883.75
2022-10-01T16:26:39.309Z,99893.50
2022-10-01T16:29:24.036Z,99892.56
2022-10-01T16:31:51.721Z,99891.56
2022-10-01T16:34:21.193Z,99904.03
2022-10-01T16:36:48.323Z,99901.84
2022-10-01T16:39:15.668Z,99902.28
2022-10-01T16:42:01.340Z,99911.16
2022-10-01T16:44:39.910Z,99913.22
2022-10-01T16:47:06.807Z,99919.66
2022-10-01T16:49:33.889Z,99915.16
2022-10-01T16:52:01.307Z,99921.75
2022-10-01T16:54:28.932Z,99925.31
2022-10-01T16:56:55.920Z,99928.91
2022-10-01T16:59:24.812Z,99933.91
2022-10-01T17:01:55.890Z,99930.53
2022-10-01T17:04:23.745Z,99941.97
2022-10-01T17:06:50.743Z,99945.75
2022-10-01T17:09:17.677Z,99947.59
2022-10-01T17:11:44.705Z,99937.91
2022-10-01T17:14:21.143Z,99938.63
2022-10-01T17:16:50.725Z,99937.09
2022-10-01T17:19:18.601Z,99939.28
2022-10-01T17:21:46.592Z,99939.28
2022-10-01T17:24:13.565Z,99936.97
2022-10-01T17:26:45.460Z,99937.44
2022-10-01T17:29:13.287Z,99936.19
2022-10-01T17:31:44.794Z,99933.41
2022-10-01T17:34:11.991Z,99934.34
2022-10-01T17:36:39.900Z,99929.38
2022-10-01T17:39:07.082Z,99932.59
2022-10-01T17:41:34.279Z,99947.63
2022-10-01T17:44:01.699Z,99931.59
2022-10-01T17:46:30.947Z,99940.94
2022-10-01T17:48:57.914Z,99939.56
2022-10-01T17:51:25.920Z,99932.16
2022-10-01T17:53:54.936Z,99942.47
2022-10-01T17:56:22.008Z,99938.41
2022-10-01T17:58:48.963Z,99942.00
2022-10-01T18:01:22.010Z,99951.59
2022-10-01T18:03:56.260Z,99952.19
2022-10-01T18:06:25.287Z,99953.22
2022-10-01T18:08:56.620Z,99961.00
2022-10-01T18:11:28.179Z,99960.13
2022-10-01T18:13:55.624Z,99957.47
2022-10-01T18:16:23.933Z,99966.03
2022-10-01T18:21:51.123Z,99984.09
2022-10-01T18:24:18.791Z,99979.81
2022-10-01T18:26:46.018Z,99985.13
2022-10-01T18:29:26.817Z,99983.97
2022-10-01T18:32:12.820Z,99997.72
2022-10-01T18:34:59.651Z,100011.06
2022-10-01T18:37:40.102Z,100014.88
2022-10-01T18:40:24.991Z,100009.44
2022-10-01T18:43:07.424Z,100026.09
2022-10-01T18:45:36.849Z,100022.63
2022-10-01T18:48:39.809Z,100038.59
2022-10-01T18:51:18.944Z,100041.63
2022-10-01T18:54:02.214Z,100051.56
2022-10-01T18:56:37.697Z,100052.97
2022-10-01T18:59:52.548Z,100052.50
2022-10-01T19:03:08.343Z,100060.38
2022-10-01T19:06:34.704Z,100058.97
2022-10-01T19:10:02.121Z,100064.66
2022-10-01T19:13:13.925Z,100087.91
2022-10-01T19:16:09.793Z,100087.91
2022-10-01T19:19:20.110Z,100090.78
2022-10-01T19:22:14.732Z,100095.53
2022-10-01T19:25:27.131Z,100100.16
2022-10-01T19:28:34.582Z,100104.44
2022-10-01T19:31:22.308Z,100111.84
2022-10-01T19:34:34.233Z,100116.94
2022-10-01T19:37:15.336Z,100126.19
2022-10-01T19:39:49.142Z,100126.44
2022-10-01T19:42:38.234Z,100127.09
2022-10-01T19:45:33.294Z,100134.63
2022-10-01T19:48:18.200Z,100130.09
2022-10-01T19:51:04.704Z,100130.66
2022-10-01T19:53:39.654Z,100134.34
2022-10-01T19:56:20.424Z,100138.94
2022-10-01T19:58:47.523Z,100136.38
2022-10-01T20:01:25.917Z,100140.69
2022-10-01T20:04:09.998Z,100148.31
2022-10-01T20:06:46.966Z,100156.47
2022-10-01T20:09:40.440Z,100169.25
2022-10-01T20:12:36.231Z,100166.38
2022-10-01T20:16:04.559Z,100168.06
2022-10-01T20:18:53.708Z,100179.34
2022-10-01T20:21:49.830Z,100187.00
2022-10-01T20:24:39.907Z,100192.28
2022-10-01T20:28:01.194Z,100195.22
2022-10-01T20:30:50.861Z,100204.41
2022-10-01T20:34:06.942Z,100208.06
2022-10-01T20:37:19.327Z,100211.00
2022-10-01T20:40:03.362Z,100208.06
2022-10-01T20:42:47.674Z,100225.38
2022-10-01T20:45:34.010Z,100221.50
2022-10-01T20:48:39.530Z,100222.34
2022-10-01T20:51:22.667Z,100224.78
2022-10-01T20:54:23.108Z,100229.06
2022-10-01T20:57:25.729Z,100236.41
2022-10-01T21:00:03.159Z,100238.38
2022-10-01T21:02:51.271Z,100245.22
2022-10-01T21:05:36.384Z,100245.38
2022-10-01T21:08:29.570Z,100257.78
2022-10-01T21:11:07.084Z,100255.63
2022-10-01T21:13:55.174Z,100259.72
2022-10-01T21:16:55.835Z,100264.91
2022-10-01T21:19:52.235Z,100277.00
2022-10-01T21:22:42.930Z,100267.88
2022-10-01T21:25:48.323Z,100276.69
2022-10-01T21:29:13.681Z,100282.84
2022-10-01T21:31:58.997Z,100292.13
2022-10-01T21:35:08.761Z,100295.88
2022-10-01T21:37:56.171Z,100295.41
2022-10-01T21:40:37.216Z,100302.22
2022-10-01T21:44:00.650Z,100306.16
2022-10-01T21:47:05.621Z,100314.16
2022-10-01T21:50:11.988Z,100322.63
2022-10-01T21:53:03.152Z,100331.59
2022-10-01T21:56:08.132Z,100332.25
2022-10-01T21:59:13.932Z,100337.47
2022-10-01T22:02:37.073Z,100349.38
2022-10-01T22:05:23.416Z,100350.84
2022-10-01T22:08:33.368Z,100350.19
2022-10-01T22:11:17.156Z,100360.78
2022-10-01T22:14:02.253Z,100363.53
2022-10-01T22:16:47.112Z,100363.22
2022-10-01T22:19:29.404Z,100381.00
2022-10-01T22:22:13.881Z,100382.63
2022-10-01T22:24:58.613Z,100388.50
2022-10-01T22:27:43.891Z,100395.19
2022-10-01T22:30:25.015Z,100396.84
2022-10-01T22:33:18.367Z,100402.03
2022-10-01T22:36:29.158Z,100405.78
2022-10-01T22:39:05.048Z,100413.59
2022-10-01T22:41:53.112Z,100414.75
2022-10-01T22:44:23.626Z,100423.38
2022-10-01T22:47:57.987Z,100421.59
2022-10-01T22:51:28.498Z,100424.00
2022-10-01T22:54:29.841Z,100431.38
2022-10-01T22:57:54.678Z,100440.19
2022-10-01T23:00:21.712Z,100442.78
2022-10-01T23:03:02.160Z,100445.53
2022-10-01T23:06:01.039Z,100445.38
2022-10-01T23:09:08.151Z,100438.38
2022-10-01T23:12:32.999Z,100452.69
2022-10-01T23:15:27.446Z,100461.19
2022-10-01T23:18:35.275Z,100461.00
2022-10-01T23:21:56.064Z,100464.75
2022-10-01T23:24:58.826Z,100466.22
2022-10-01T23:28:13.562Z,100474.72
2022-10-01T23:31:15.500Z,100475.84
2022-10-01T23:34:16.690Z,100476.16
2022-10-01T23:37:05.941Z,100492.28
2022-10-01T23:40:13.096Z,100491.63
2022-10-01T23:43:10.762Z,100493.53
2022-10-01T23:46:07.968Z,100499.25
2022-10-01T23:49:15.664Z,100499.06
2022-10-01T23:52:28.190Z,100497.97
2022-10-01T23:55:30.200Z,100507.59
2022-10-01T23:58:03.361Z,100499.78
